GABCG EGJJ-EGJJ

Flight info

Callsign GABCG
Flight time 1h 5m
Altitude 1000
Route DCT
Aircraft C152/L-V/N

Departure

Time 2026-05-07 20:03
Airport Jersey Airport (EGJJ)

Arrival

Time 2026-05-07 21:08
Airport Jersey Airport (EGJJ)
Time Latitude Longitude Altitude Speed Heading
2026-05-07 19:55 49.20681 -2.18314 276 ft 0 kts 200°
2026-05-07 19:57 49.20678 -2.18320 276 ft 4 kts 246°
2026-05-07 19:57 49.20684 -2.18334 276 ft 0 kts
2026-05-07 19:57 49.20689 -2.18335 275 ft 1 kts 334°
2026-05-07 19:58 49.20696 -2.18348 275 ft 9 kts 285°
2026-05-07 19:58 49.20711 -2.18467 276 ft 9 kts 312°
2026-05-07 19:58 49.20731 -2.18511 276 ft 13 kts 270°
2026-05-07 19:58 49.20712 -2.18754 277 ft 18 kts 264°
2026-05-07 19:59 49.20693 -2.18971 277 ft 29 kts 261°
2026-05-07 19:59 49.20693 -2.19303 275 ft 32 kts 287°
2026-05-07 19:59 49.20685 -2.19601 274 ft 22 kts 247°
2026-05-07 19:59 49.20610 -2.19786 274 ft 21 kts 270°
2026-05-07 20:00 49.20570 -2.19936 274 ft 9 kts 178°
2026-05-07 20:00 49.20527 -2.19991 274 ft 14 kts 264°
2026-05-07 20:00 49.20610 -2.20101 276 ft 17 kts 356°
2026-05-07 20:00 49.20644 -2.20105 276 ft 0 kts 358°
2026-05-07 20:02 49.20720 -2.20097 275 ft 22 kts 32°
2026-05-07 20:02 49.20783 -2.19650 278 ft 66 kts 84°
2026-05-07 20:02 49.20823 -2.18910 473 ft 68 kts 86°
2026-05-07 20:03 49.20847 -2.18217 700 ft 61 kts 86°
2026-05-07 20:03 49.20954 -2.17631 891 ft 59 kts 82°
2026-05-07 20:03 49.21035 -2.16883 904 ft 82 kts 81°
2026-05-07 20:03 49.21139 -2.15991 900 ft 90 kts 83°
2026-05-07 20:04 49.21262 -2.15066 908 ft 91 kts 81°
2026-05-07 20:04 49.21381 -2.14109 944 ft 92 kts 83°
2026-05-07 20:04 49.21521 -2.13175 1038 ft 88 kts 79°
2026-05-07 20:04 49.21639 -2.12296 1153 ft 83 kts 82°
2026-05-07 20:05 49.21763 -2.11432 1245 ft 82 kts 81°
2026-05-07 20:05 49.21900 -2.10570 1347 ft 85 kts 81°
2026-05-07 20:05 49.22074 -2.09703 1448 ft 87 kts 70°
2026-05-07 20:05 49.22566 -2.09136 1547 ft 101 kts
2026-05-07 20:06 49.23232 -2.09537 1647 ft 109 kts 316°
2026-05-07 20:06 49.23786 -2.10341 1757 ft 110 kts 317°
2026-05-07 20:06 49.24353 -2.11133 1862 ft 111 kts 316°
2026-05-07 20:06 49.24926 -2.11925 1961 ft 110 kts 316°
2026-05-07 20:07 49.25493 -2.12710 2066 ft 110 kts 316°
2026-05-07 20:07 49.26066 -2.13487 2165 ft 110 kts 316°
2026-05-07 20:07 49.26639 -2.14264 2267 ft 110 kts 316°
2026-05-07 20:07 49.27217 -2.15036 2370 ft 110 kts 316°
2026-05-07 20:08 49.27794 -2.15807 2475 ft 110 kts 316°
2026-05-07 20:08 49.28369 -2.16576 2577 ft 109 kts 314°
2026-05-07 20:08 49.28866 -2.17450 2676 ft 110 kts 305°
2026-05-07 20:08 49.29366 -2.18339 2777 ft 111 kts 306°
2026-05-07 20:09 49.29871 -2.19227 2880 ft 110 kts 307°
2026-05-07 20:09 49.30366 -2.20102 2982 ft 110 kts 307°
2026-05-07 20:09 49.30872 -2.20981 3086 ft 110 kts 306°
2026-05-07 20:10 49.31896 -2.22727 3298 ft 109 kts 306°
2026-05-07 20:10 49.32409 -2.23575 3399 ft 108 kts 307°
2026-05-07 20:10 49.32909 -2.24420 3499 ft 107 kts 305°
2026-05-07 20:10 49.33418 -2.25255 3599 ft 107 kts 306°
2026-05-07 20:11 49.33920 -2.26092 3702 ft 106 kts 306°
2026-05-07 20:11 49.34419 -2.26925 3802 ft 106 kts 306°
2026-05-07 20:11 49.34920 -2.27754 3905 ft 105 kts 306°
2026-05-07 20:11 49.35408 -2.28591 4003 ft 106 kts 305°
2026-05-07 20:12 49.35909 -2.29423 4104 ft 106 kts 308°
2026-05-07 20:12 49.36402 -2.30260 4205 ft 105 kts 306°
2026-05-07 20:12 49.36895 -2.31094 4310 ft 105 kts 306°
2026-05-07 20:12 49.37396 -2.31921 4410 ft 106 kts 306°
2026-05-07 20:13 49.37906 -2.32737 4512 ft 105 kts 306°
2026-05-07 20:13 49.38407 -2.33549 4617 ft 103 kts 307°
2026-05-07 20:13 49.38826 -2.34412 4715 ft 96 kts 276°
2026-05-07 20:13 49.38811 -2.35382 4818 ft 92 kts 260°
2026-05-07 20:14 49.38798 -2.36356 4917 ft 92 kts 260°
2026-05-07 20:14 49.38765 -2.37358 4971 ft 95 kts 260°
2026-05-07 20:14 49.38748 -2.38391 5028 ft 97 kts 260°
2026-05-07 20:14 49.38754 -2.39431 5062 ft 100 kts 266°
2026-05-07 20:15 49.39212 -2.40273 5048 ft 112 kts 328°
2026-05-07 20:15 49.39804 -2.41035 4786 ft 123 kts 285°
2026-05-07 20:15 49.39688 -2.42289 4411 ft 118 kts 236°
2026-05-07 20:15 49.39286 -2.43375 4186 ft 117 kts 236°
2026-05-07 20:16 49.38900 -2.44457 3964 ft 114 kts 234°
2026-05-07 20:16 49.38548 -2.45551 3740 ft 117 kts 246°
2026-05-07 20:16 49.38320 -2.46652 3761 ft 103 kts 242°
2026-05-07 20:16 49.38055 -2.47687 3647 ft 108 kts 240°
2026-05-07 20:17 49.37755 -2.48802 3314 ft 120 kts 240°
2026-05-07 20:17 49.37411 -2.50021 2838 ft 126 kts 240°
2026-05-07 20:17 49.37064 -2.51266 2364 ft 128 kts 240°
2026-05-07 20:17 49.36703 -2.52529 1886 ft 130 kts 240°
2026-05-07 20:18 49.36336 -2.53811 1401 ft 134 kts 239°
2026-05-07 20:18 49.35978 -2.55086 1201 ft 125 kts 241°
2026-05-07 20:18 49.35639 -2.56279 1193 ft 118 kts 240°
2026-05-07 20:18 49.35325 -2.57424 1191 ft 118 kts 240°
2026-05-07 20:19 49.35013 -2.58588 1190 ft 118 kts 239°
2026-05-07 20:19 49.34709 -2.59749 1189 ft 116 kts 240°
2026-05-07 20:19 49.34419 -2.60863 1314 ft 107 kts 239°
2026-05-07 20:19 49.34250 -2.61953 1449 ft 108 kts 261°
2026-05-07 20:20 49.34290 -2.62730 1491 ft 114 kts 271°
2026-05-07 20:20 49.34445 -2.64363 1495 ft 117 kts 271°
2026-05-07 20:20 49.34553 -2.65604 1495 ft 117 kts 271°
2026-05-07 20:20 49.34663 -2.66839 1499 ft 118 kts 271°
2026-05-07 20:21 49.34771 -2.68086 1503 ft 118 kts 271°
2026-05-07 20:21 49.34873 -2.69329 1505 ft 117 kts 271°
2026-05-07 20:21 49.35001 -2.70561 1504 ft 117 kts 278°
2026-05-07 20:21 49.35283 -2.71738 1503 ft 118 kts 288°
2026-05-07 20:22 49.35586 -2.72901 1502 ft 117 kts 287°
2026-05-07 20:22 49.35896 -2.74062 1502 ft 118 kts 287°
2026-05-07 20:22 49.36206 -2.75231 1502 ft 118 kts 287°
2026-05-07 20:22 49.36514 -2.76405 1502 ft 119 kts 287°
2026-05-07 20:23 49.36825 -2.77582 1502 ft 119 kts 287°
2026-05-07 20:23 49.37138 -2.78757 1502 ft 119 kts 287°
2026-05-07 20:23 49.37450 -2.79939 1502 ft 119 kts 287°
2026-05-07 20:23 49.37749 -2.81104 1501 ft 119 kts 289°
2026-05-07 20:24 49.38383 -2.81880 1476 ft 120 kts 356°
2026-05-07 20:24 49.39195 -2.81827 1481 ft 119 kts
2026-05-07 20:24 49.40025 -2.81767 1483 ft 120 kts
2026-05-07 20:24 49.40856 -2.81702 1486 ft 119 kts
2026-05-07 20:25 49.41687 -2.81627 1487 ft 119 kts
2026-05-07 20:25 49.42514 -2.81547 1488 ft 120 kts
2026-05-07 20:25 49.43346 -2.81472 1488 ft 119 kts
2026-05-07 20:25 49.44065 -2.80985 1491 ft 110 kts 53°
2026-05-07 20:26 49.44374 -2.79984 1494 ft 103 kts 82°
2026-05-07 20:26 49.44429 -2.78921 1494 ft 98 kts 99°
2026-05-07 20:26 49.44310 -2.77913 1495 ft 94 kts 118°
2026-05-07 20:26 49.43979 -2.77074 1498 ft 93 kts 126°
2026-05-07 20:27 49.43629 -2.76231 1496 ft 94 kts 126°
2026-05-07 20:27 49.43368 -2.75306 1496 ft 97 kts 108°
2026-05-07 20:27 49.43246 -2.74290 1496 ft 97 kts 102°
2026-05-07 20:27 49.43221 -2.73240 1496 ft 100 kts 96°
2026-05-07 20:28 49.43269 -2.72160 1495 ft 102 kts 92°
2026-05-07 20:28 49.43279 -2.71086 1496 ft 100 kts 98°
2026-05-07 20:28 49.43252 -2.70017 1491 ft 100 kts 96°
2026-05-07 20:28 49.43218 -2.68966 1494 ft 98 kts 100°
2026-05-07 20:29 49.43245 -2.67888 1421 ft 104 kts 88°
2026-05-07 20:29 49.43336 -2.66801 1347 ft 102 kts 88°
2026-05-07 20:29 49.43388 -2.65742 1194 ft 98 kts 95°
2026-05-07 20:29 49.43382 -2.64722 975 ft 93 kts 93°
2026-05-07 20:30 49.43402 -2.63715 762 ft 94 kts 89°
2026-05-07 20:30 49.43427 -2.62766 592 ft 85 kts 90°
2026-05-07 20:30 49.43449 -2.61886 436 ft 78 kts 86°
2026-05-07 20:30 49.43473 -2.61113 320 ft 64 kts 86°
2026-05-07 20:31 49.43488 -2.60483 308 ft 68 kts 87°
2026-05-07 20:31 49.43463 -2.59778 567 ft 61 kts 101°
2026-05-07 20:31 49.43376 -2.59408 754 ft 51 kts 124°
2026-05-07 20:31 49.43317 -2.58930 1008 ft 49 kts 90°
2026-05-07 20:32 49.43315 -2.58342 1136 ft 62 kts 101°
2026-05-07 20:32 49.43396 -2.57770 1326 ft 66 kts 98°
2026-05-07 20:32 49.43489 -2.57029 1528 ft 74 kts 83°
2026-05-07 20:32 49.43626 -2.56182 1571 ft 91 kts 83°
2026-05-07 20:33 49.43786 -2.55165 1512 ft 101 kts 84°
2026-05-07 20:33 49.43948 -2.54112 1512 ft 101 kts 84°
2026-05-07 20:33 49.44018 -2.53057 1500 ft 99 kts 102°
2026-05-07 20:33 49.43917 -2.52021 1509 ft 97 kts 103°
2026-05-07 20:34 49.43827 -2.51001 1506 ft 98 kts 103°
2026-05-07 20:34 49.43731 -2.49969 1510 ft 98 kts 103°
2026-05-07 20:34 49.43638 -2.48937 1507 ft 97 kts 104°
2026-05-07 20:34 49.43551 -2.47910 1507 ft 97 kts 104°
2026-05-07 20:35 49.43468 -2.46879 1504 ft 98 kts 103°
2026-05-07 20:35 49.43379 -2.45846 1509 ft 97 kts 103°
2026-05-07 20:35 49.43284 -2.44826 1508 ft 97 kts 104°
2026-05-07 20:35 49.43154 -2.43804 1506 ft 98 kts 110°
2026-05-07 20:36 49.42972 -2.42810 1510 ft 97 kts 110°
2026-05-07 20:36 49.42794 -2.41811 1510 ft 97 kts 111°
2026-05-07 20:36 49.42563 -2.40837 1509 ft 97 kts 116°
2026-05-07 20:36 49.42316 -2.39871 1510 ft 96 kts 116°
2026-05-07 20:37 49.42069 -2.38923 1505 ft 95 kts 117°
2026-05-07 20:37 49.41832 -2.37968 1508 ft 96 kts 116°
2026-05-07 20:37 49.41608 -2.37005 1505 ft 95 kts 115°
2026-05-07 20:37 49.41370 -2.36037 1500 ft 96 kts 117°
2026-05-07 20:38 49.41097 -2.35133 1493 ft 93 kts 136°
2026-05-07 20:38 49.40583 -2.34550 1493 ft 91 kts 146°
2026-05-07 20:38 49.40070 -2.33987 1494 ft 90 kts 149°
2026-05-07 20:38 49.39490 -2.33655 1494 ft 90 kts 161°
2026-05-07 20:39 49.38888 -2.33366 1496 ft 91 kts 161°
2026-05-07 20:39 49.38280 -2.33069 1496 ft 92 kts 161°
2026-05-07 20:39 49.37672 -2.32763 1497 ft 92 kts 161°
2026-05-07 20:39 49.37069 -2.32464 1497 ft 92 kts 161°
2026-05-07 20:40 49.36453 -2.32181 1494 ft 92 kts 161°
2026-05-07 20:40 49.35826 -2.31979 1499 ft 92 kts 169°
2026-05-07 20:40 49.35187 -2.31822 1500 ft 93 kts 168°
2026-05-07 20:40 49.34555 -2.31667 1500 ft 93 kts 168°
2026-05-07 20:41 49.33919 -2.31534 1497 ft 92 kts 170°
2026-05-07 20:41 49.33273 -2.31549 1496 ft 93 kts 178°
2026-05-07 20:41 49.32620 -2.31597 1496 ft 94 kts 178°
2026-05-07 20:41 49.31968 -2.31663 1500 ft 94 kts 179°
2026-05-07 20:42 49.31289 -2.31719 1500 ft 93 kts 178°
2026-05-07 20:42 49.30638 -2.31771 1498 ft 94 kts 179°
2026-05-07 20:42 49.29979 -2.31813 1500 ft 95 kts 178°
2026-05-07 20:42 49.29318 -2.31861 1500 ft 95 kts 178°
2026-05-07 20:43 49.28669 -2.31909 1501 ft 94 kts 178°
2026-05-07 20:43 49.28022 -2.31968 1494 ft 93 kts 180°
2026-05-07 20:43 49.27366 -2.32000 1499 ft 95 kts 178°
2026-05-07 20:43 49.26696 -2.32025 1500 ft 97 kts 177°
2026-05-07 20:44 49.26030 -2.32068 1495 ft 95 kts 179°
2026-05-07 20:44 49.25373 -2.32096 1495 ft 94 kts 178°
2026-05-07 20:44 49.24711 -2.32126 1496 ft 96 kts 178°
2026-05-07 20:44 49.24045 -2.32127 1497 ft 95 kts 170°
2026-05-07 20:45 49.23388 -2.31999 1497 ft 94 kts 169°
2026-05-07 20:45 49.22765 -2.31781 1500 ft 93 kts 162°
2026-05-07 20:45 49.22139 -2.31520 1499 ft 93 kts 162°
2026-05-07 20:45 49.21524 -2.31241 1489 ft 93 kts 162°
2026-05-07 20:46 49.20857 -2.30943 1286 ft 106 kts 162°
2026-05-07 20:46 49.20170 -2.30494 1054 ft 110 kts 141°
2026-05-07 20:46 49.19789 -2.29534 826 ft 111 kts 91°
2026-05-07 20:46 49.19922 -2.28439 806 ft 99 kts 82°
2026-05-07 20:47 49.20062 -2.27423 804 ft 97 kts 76°
2026-05-07 20:47 49.20248 -2.26454 800 ft 93 kts 80°
2026-05-07 20:47 49.20342 -2.25470 765 ft 96 kts 84°
2026-05-07 20:47 49.20404 -2.24456 728 ft 95 kts 88°
2026-05-07 20:48 49.20467 -2.23429 675 ft 96 kts 83°
2026-05-07 20:48 49.20559 -2.22454 532 ft 88 kts 81°
2026-05-07 20:48 49.20625 -2.21609 417 ft 77 kts 81°
2026-05-07 20:48 49.20687 -2.20875 406 ft 72 kts 82°
2026-05-07 20:49 49.20758 -2.20103 283 ft 68 kts 83°
2026-05-07 20:49 49.20816 -2.19421 281 ft 76 kts 82°
2026-05-07 20:49 49.20870 -2.18735 603 ft 56 kts 83°
2026-05-07 20:49 49.20910 -2.18171 788 ft 59 kts 83°
2026-05-07 20:50 49.20976 -2.17422 811 ft 81 kts 84°
2026-05-07 20:50 49.21056 -2.16536 810 ft 86 kts 83°
2026-05-07 20:50 49.21123 -2.15611 817 ft 85 kts 92°
2026-05-07 20:50 49.21002 -2.14689 806 ft 91 kts 113°
2026-05-07 20:51 49.20689 -2.13852 808 ft 93 kts 122°
2026-05-07 20:51 49.20332 -2.13007 796 ft 92 kts 120°
2026-05-07 20:51 49.19963 -2.12229 793 ft 91 kts 122°
2026-05-07 20:51 49.19612 -2.11439 797 ft 90 kts 121°
2026-05-07 20:52 49.19258 -2.10650 796 ft 89 kts 122°
2026-05-07 20:52 49.18911 -2.09879 800 ft 87 kts 121°
2026-05-07 20:52 49.18620 -2.09102 802 ft 88 kts 102°
2026-05-07 20:52 49.18624 -2.08145 804 ft 93 kts 75°
2026-05-07 20:53 49.18993 -2.07334 804 ft 96 kts 47°
2026-05-07 20:53 49.19594 -2.06816 808 ft 100 kts 34°
2026-05-07 20:53 49.20218 -2.06301 808 ft 104 kts 33°
2026-05-07 20:53 49.20838 -2.05776 851 ft 98 kts 34°
2026-05-07 20:54 49.21438 -2.05311 945 ft 96 kts 33°
2026-05-07 20:54 49.22040 -2.04863 998 ft 98 kts 33°
2026-05-07 20:54 49.22666 -2.04379 997 ft 103 kts 32°
2026-05-07 20:54 49.23379 -2.04213 988 ft 114 kts 340°
2026-05-07 20:55 49.23930 -2.05059 1001 ft 114 kts 307°
2026-05-07 20:55 49.24416 -2.06010 1000 ft 113 kts 305°
2026-05-07 20:55 49.24883 -2.06985 1002 ft 114 kts 304°
2026-05-07 20:55 49.25179 -2.08086 1003 ft 111 kts 279°
2026-05-07 20:56 49.25198 -2.09254 1013 ft 112 kts 264°
2026-05-07 20:56 49.25164 -2.10453 995 ft 110 kts 264°
2026-05-07 20:56 49.25149 -2.11632 999 ft 113 kts 264°
2026-05-07 20:56 49.25136 -2.12858 986 ft 117 kts 264°
2026-05-07 20:57 49.25111 -2.14055 1012 ft 111 kts 264°
2026-05-07 20:57 49.25085 -2.15257 1003 ft 114 kts 265°
2026-05-07 20:57 49.25057 -2.16467 997 ft 115 kts 264°
2026-05-07 20:57 49.25031 -2.17657 986 ft 106 kts 263°
2026-05-07 20:58 49.25005 -2.18783 1001 ft 106 kts 264°
2026-05-07 20:58 49.24977 -2.19948 997 ft 111 kts 265°
2026-05-07 20:58 49.24938 -2.21135 1003 ft 114 kts 263°
2026-05-07 20:58 49.24865 -2.22317 1005 ft 106 kts 238°
2026-05-07 20:59 49.24438 -2.23173 1005 ft 101 kts 225°
2026-05-07 20:59 49.23989 -2.24007 1003 ft 105 kts 224°
2026-05-07 20:59 49.23500 -2.24809 1000 ft 100 kts 212°
2026-05-07 20:59 49.22960 -2.25478 1007 ft 101 kts 212°
2026-05-07 21:00 49.22343 -2.25929 1007 ft 98 kts 187°
2026-05-07 21:00 49.21687 -2.26110 996 ft 94 kts 178°
2026-05-07 21:00 49.21038 -2.26126 995 ft 92 kts 162°
2026-05-07 21:00 49.20472 -2.25728 997 ft 90 kts 148°
2026-05-07 21:01 49.19869 -2.25441 999 ft 94 kts 167°
2026-05-07 21:01 49.19229 -2.25744 997 ft 105 kts 215°
2026-05-07 21:01 49.18770 -2.26663 1000 ft 109 kts 231°
2026-05-07 21:01 49.18470 -2.27751 1003 ft 112 kts 257°
2026-05-07 21:02 49.18548 -2.28940 1007 ft 114 kts 282°
2026-05-07 21:02 49.18822 -2.30070 997 ft 113 kts 308°
2026-05-07 21:02 49.19476 -2.30616 992 ft 106 kts 355°
2026-05-07 21:02 49.20206 -2.30826 998 ft 108 kts 355°
2026-05-07 21:03 49.20920 -2.31240 991 ft 113 kts 325°
2026-05-07 21:03 49.21479 -2.32073 992 ft 112 kts 313°
2026-05-07 21:03 49.21830 -2.33134 1000 ft 113 kts 291°
2026-05-07 21:03 49.22075 -2.34253 991 ft 111 kts 267°
2026-05-07 21:04 49.21694 -2.35127 992 ft 100 kts 192°
2026-05-07 21:04 49.21119 -2.34802 993 ft 95 kts 120°
2026-05-07 21:04 49.20962 -2.33844 996 ft 93 kts 124°
2026-05-07 21:04 49.20454 -2.33338 995 ft 84 kts 147°
2026-05-07 21:05 49.19966 -2.32916 994 ft 78 kts 146°
2026-05-07 21:05 49.19818 -2.32249 995 ft 74 kts 73°
2026-05-07 21:05 49.19949 -2.31499 987 ft 71 kts 83°
2026-05-07 21:05 49.20035 -2.30731 1046 ft 79 kts 89°
2026-05-07 21:06 49.20097 -2.29865 1127 ft 81 kts 87°
2026-05-07 21:06 49.20177 -2.28997 1172 ft 87 kts 92°
2026-05-07 21:06 49.20177 -2.28023 1066 ft 94 kts 93°
2026-05-07 21:06 49.20189 -2.27012 937 ft 100 kts 86°
2026-05-07 21:07 49.20262 -2.25963 865 ft 95 kts 84°
2026-05-07 21:07 49.20356 -2.24955 721 ft 98 kts 83°
2026-05-07 21:07 49.20426 -2.23993 681 ft 89 kts 83°
2026-05-07 21:07 49.20494 -2.23030 600 ft 95 kts 82°
2026-05-07 21:08 49.20582 -2.22003 477 ft 96 kts 79°
2026-05-07 21:08 49.20654 -2.21104 366 ft 74 kts 83°
2026-05-07 21:08 49.20731 -2.20341 304 ft 70 kts 81°
2026-05-07 21:08 49.20789 -2.19730 277 ft 47 kts 82°
2026-05-07 21:09 49.20821 -2.19328 279 ft 31 kts 94°
2026-05-07 21:09 49.20796 -2.19054 277 ft 22 kts 104°
2026-05-07 21:09 49.20751 -2.18876 276 ft 13 kts 119°
2026-05-07 21:09 49.20711 -2.18786 277 ft 10 kts 83°
2026-05-07 21:10 49.20721 -2.18691 276 ft 10 kts 80°
2026-05-07 21:10 49.20728 -2.18567 276 ft 13 kts 83°
2026-05-07 21:10 49.20713 -2.18461 276 ft 10 kts 144°
2026-05-07 21:10 49.20699 -2.18378 275 ft 6 kts 65°
2026-05-07 21:11 49.20707 -2.18369 275 ft 0 kts 356°